sensor_id;sensor_type;location;lat;lon;timestamp;temperature;humidity
12276;DHT22;6200;48.144;11.424;2022-07-15T00:01:46;21.30;81.40
12276;DHT22;6200;48.144;11.424;2022-07-15T00:04:11;21.30;79.10
12276;DHT22;6200;48.144;11.424;2022-07-15T00:06:37;21.30;80.80
12276;DHT22;6200;48.144;11.424;2022-07-15T00:09:03;21.20;80.30
12276;DHT22;6200;48.144;11.424;2022-07-15T00:11:29;21.20;81.10
12276;DHT22;6200;48.144;11.424;2022-07-15T00:13:55;21.10;81.30
12276;DHT22;6200;48.144;11.424;2022-07-15T00:16:20;21.20;81.00
12276;DHT22;6200;48.144;11.424;2022-07-15T00:18:46;21.20;80.00
12276;DHT22;6200;48.144;11.424;2022-07-15T00:21:12;21.10;81.20
12276;DHT22;6200;48.144;11.424;2022-07-15T00:23:37;21.10;80.60
12276;DHT22;6200;48.144;11.424;2022-07-15T00:26:03;21.10;81.30
12276;DHT22;6200;48.144;11.424;2022-07-15T00:28:28;21.10;81.10
12276;DHT22;6200;48.144;11.424;2022-07-15T00:30:54;21.10;86.60
12276;DHT22;6200;48.144;11.424;2022-07-15T00:33:22;21.00;90.80
12276;DHT22;6200;48.144;11.424;2022-07-15T00:35:48;21.00;91.90
12276;DHT22;6200;48.144;11.424;2022-07-15T00:38:14;20.80;92.40
12276;DHT22;6200;48.144;11.424;2022-07-15T00:40:42;20.70;93.30
12276;DHT22;6200;48.144;11.424;2022-07-15T00:43:08;20.50;94.80
12276;DHT22;6200;48.144;11.424;2022-07-15T00:45:34;20.30;95.80
12276;DHT22;6200;48.144;11.424;2022-07-15T00:47:59;20.20;96.20
12276;DHT22;6200;48.144;11.424;2022-07-15T00:50:27;20.10;97.30
12276;DHT22;6200;48.144;11.424;2022-07-15T00:55:23;19.90;98.40
12276;DHT22;6200;48.144;11.424;2022-07-15T00:57:50;19.80;99.90
12276;DHT22;6200;48.144;11.424;2022-07-15T01:00:17;19.80;99.90
12276;DHT22;6200;48.144;11.424;2022-07-15T01:02:44;19.70;99.90
12276;DHT22;6200;48.144;11.424;2022-07-15T01:05:17;19.60;99.90
12276;DHT22;6200;48.144;11.424;2022-07-15T01:07:44;19.50;99.90
12276;DHT22;6200;48.144;11.424;2022-07-15T01:10:10;19.40;99.90
12276;DHT22;6200;48.144;11.424;2022-07-15T01:12:36;19.40;99.90
12276;DHT22;6200;48.144;11.424;2022-07-15T01:15:08;19.30;99.90
12276;DHT22;6200;48.144;11.424;2022-07-15T01:17:34;19.20;99.90
12276;DHT22;6200;48.144;11.424;2022-07-15T01:20:00;19.20;99.90
12276;DHT22;6200;48.144;11.424;2022-07-15T01:22:26;19.10;99.90
12276;DHT22;6200;48.144;11.424;2022-07-15T01:24:52;19.10;99.90
12276;DHT22;6200;48.144;11.424;2022-07-15T01:27:18;19.00;99.90
12276;DHT22;6200;48.144;11.424;2022-07-15T01:29:44;19.00;99.90
12276;DHT22;6200;48.144;11.424;2022-07-15T01:32:10;18.90;99.90
12276;DHT22;6200;48.144;11.424;2022-07-15T01:34:35;18.80;99.90
12276;DHT22;6200;48.144;11.424;2022-07-15T01:37:01;18.80;99.90
12276;DHT22;6200;48.144;11.424;2022-07-15T01:39:27;18.70;99.90
12276;DHT22;6200;48.144;11.424;2022-07-15T01:41:52;18.70;99.90
12276;DHT22;6200;48.144;11.424;2022-07-15T01:44:18;18.60;99.90
12276;DHT22;6200;48.144;11.424;2022-07-15T01:46:43;18.60;99.90
12276;DHT22;6200;48.144;11.424;2022-07-15T01:49:09;18.50;99.90
12276;DHT22;6200;48.144;11.424;2022-07-15T01:51:58;18.50;99.90
12276;DHT22;6200;48.144;11.424;2022-07-15T01:54:25;18.50;99.90
12276;DHT22;6200;48.144;11.424;2022-07-15T01:56:52;18.40;99.90
12276;DHT22;6200;48.144;11.424;2022-07-15T01:59:18;18.30;99.90
12276;DHT22;6200;48.144;11.424;2022-07-15T02:01:44;18.20;99.90
12276;DHT22;6200;48.144;11.424;2022-07-15T02:04:11;18.30;99.90
12276;DHT22;6200;48.144;11.424;2022-07-15T02:06:38;18.20;99.90
12276;DHT22;6200;48.144;11.424;2022-07-15T02:09:04;18.20;99.90
12276;DHT22;6200;48.144;11.424;2022-07-15T02:11:29;18.10;99.90
12276;DHT22;6200;48.144;11.424;2022-07-15T02:13:55;18.10;99.90
12276;DHT22;6200;48.144;11.424;2022-07-15T02:16:24;18.10;99.90
12276;DHT22;6200;48.144;11.424;2022-07-15T02:18:50;18.10;99.90
12276;DHT22;6200;48.144;11.424;2022-07-15T02:21:15;18.00;99.90
12276;DHT22;6200;48.144;11.424;2022-07-15T02:23:41;17.90;99.90
12276;DHT22;6200;48.144;11.424;2022-07-15T02:26:06;17.90;99.90
12276;DHT22;6200;48.144;11.424;2022-07-15T02:28:32;17.90;99.90
12276;DHT22;6200;48.144;11.424;2022-07-15T02:30:58;17.90;99.90
12276;DHT22;6200;48.144;11.424;2022-07-15T02:33:23;17.80;99.90
12276;DHT22;6200;48.144;11.424;2022-07-15T02:35:49;17.90;99.90
12276;DHT22;6200;48.144;11.424;2022-07-15T02:38:15;17.90;99.90
12276;DHT22;6200;48.144;11.424;2022-07-15T02:40:41;17.80;99.90
12276;DHT22;6200;48.144;11.424;2022-07-15T02:43:06;17.70;99.90
12276;DHT22;6200;48.144;11.424;2022-07-15T02:45:35;17.70;99.90
12276;DHT22;6200;48.144;11.424;2022-07-15T02:48:01;17.70;99.90
12276;DHT22;6200;48.144;11.424;2022-07-15T02:50:26;17.80;99.90
12276;DHT22;6200;48.144;11.424;2022-07-15T02:52:52;17.80;99.90
12276;DHT22;6200;48.144;11.424;2022-07-15T02:55:18;17.90;99.90
12276;DHT22;6200;48.144;11.424;2022-07-15T02:57:43;17.80;99.90
12276;DHT22;6200;48.144;11.424;2022-07-15T03:00:12;17.80;99.90
12276;DHT22;6200;48.144;11.424;2022-07-15T03:02:38;17.80;99.90
12276;DHT22;6200;48.144;11.424;2022-07-15T03:05:04;17.70;99.90
12276;DHT22;6200;48.144;11.424;2022-07-15T03:07:30;17.70;99.90
12276;DHT22;6200;48.144;11.424;2022-07-15T03:09:56;17.70;99.90
12276;DHT22;6200;48.144;11.424;2022-07-15T03:12:22;17.70;99.90
12276;DHT22;6200;48.144;11.424;2022-07-15T03:14:47;17.60;99.90
12276;DHT22;6200;48.144;11.424;2022-07-15T03:17:13;17.50;99.90
12276;DHT22;6200;48.144;11.424;2022-07-15T03:19:39;17.50;99.90
12276;DHT22;6200;48.144;11.424;2022-07-15T03:22:05;17.60;99.90
12276;DHT22;6200;48.144;11.424;2022-07-15T03:24:31;17.60;99.90
12276;DHT22;6200;48.144;11.424;2022-07-15T03:26:56;17.60;99.90
12276;DHT22;6200;48.144;11.424;2022-07-15T03:29:22;17.50;99.90
12276;DHT22;6200;48.144;11.424;2022-07-15T03:31:47;17.50;99.90
12276;DHT22;6200;48.144;11.424;2022-07-15T03:34:13;17.40;99.90
12276;DHT22;6200;48.144;11.424;2022-07-15T03:36:39;17.40;99.90
12276;DHT22;6200;48.144;11.424;2022-07-15T03:39:06;17.30;99.90
12276;DHT22;6200;48.144;11.424;2022-07-15T03:41:32;17.30;99.90
12276;DHT22;6200;48.144;11.424;2022-07-15T03:43:58;17.30;99.90
12276;DHT22;6200;48.144;11.424;2022-07-15T03:46:24;17.40;99.90
12276;DHT22;6200;48.144;11.424;2022-07-15T03:48:50;17.40;99.90
12276;DHT22;6200;48.144;11.424;2022-07-15T03:51:15;17.30;99.90
12276;DHT22;6200;48.144;11.424;2022-07-15T03:53:41;17.40;99.90
12276;DHT22;6200;48.144;11.424;2022-07-15T03:56:07;17.40;99.90
12276;DHT22;6200;48.144;11.424;2022-07-15T03:58:32;17.40;99.90
12276;DHT22;6200;48.144;11.424;2022-07-15T04:00:58;17.40;99.90
12276;DHT22;6200;48.144;11.424;2022-07-15T04:03:23;17.40;99.90
12276;DHT22;6200;48.144;11.424;2022-07-15T04:05:49;17.40;99.90
12276;DHT22;6200;48.144;11.424;2022-07-15T04:08:15;17.50;99.90
12276;DHT22;6200;48.144;11.424;2022-07-15T04:10:40;17.50;99.90
12276;DHT22;6200;48.144;11.424;2022-07-15T04:13:06;17.50;99.90
12276;DHT22;6200;48.144;11.424;2022-07-15T04:15:31;17.50;99.90
12276;DHT22;6200;48.144;11.424;2022-07-15T04:17:57;17.50;99.90
12276;DHT22;6200;48.144;11.424;2022-07-15T04:20:25;17.60;99.90
12276;DHT22;6200;48.144;11.424;2022-07-15T04:22:50;17.60;99.90
12276;DHT22;6200;48.144;11.424;2022-07-15T04:25:20;17.60;99.90
12276;DHT22;6200;48.144;11.424;2022-07-15T04:27:47;17.60;99.90
12276;DHT22;6200;48.144;11.424;2022-07-15T04:30:14;17.60;99.90
12276;DHT22;6200;48.144;11.424;2022-07-15T04:32:41;17.70;99.90
12276;DHT22;6200;48.144;11.424;2022-07-15T04:35:07;17.70;99.90
12276;DHT22;6200;48.144;11.424;2022-07-15T04:37:33;17.70;99.90
12276;DHT22;6200;48.144;11.424;2022-07-15T04:39:59;17.70;99.90
12276;DHT22;6200;48.144;11.424;2022-07-15T04:42:24;17.70;99.90
12276;DHT22;6200;48.144;11.424;2022-07-15T04:44:50;17.80;99.70
12276;DHT22;6200;48.144;11.424;2022-07-15T04:47:16;17.70;99.90
12276;DHT22;6200;48.144;11.424;2022-07-15T04:49:42;17.70;99.90
12276;DHT22;6200;48.144;11.424;2022-07-15T04:52:27;17.80;99.30
12276;DHT22;6200;48.144;11.424;2022-07-15T04:54:53;17.80;99.50
12276;DHT22;6200;48.144;11.424;2022-07-15T04:57:19;17.80;99.30
12276;DHT22;6200;48.144;11.424;2022-07-15T04:59:45;17.80;99.50
12276;DHT22;6200;48.144;11.424;2022-07-15T05:02:10;17.90;99.50
12276;DHT22;6200;48.144;11.424;2022-07-15T05:04:36;18.00;98.90
12276;DHT22;6200;48.144;11.424;2022-07-15T05:07:02;18.00;98.70
12276;DHT22;6200;48.144;11.424;2022-07-15T05:09:28;18.00;98.60
12276;DHT22;6200;48.144;11.424;2022-07-15T05:11:53;18.10;98.40
12276;DHT22;6200;48.144;11.424;2022-07-15T05:14:19;18.10;98.20
12276;DHT22;6200;48.144;11.424;2022-07-15T05:16:44;18.10;98.40
12276;DHT22;6200;48.144;11.424;2022-07-15T05:19:11;18.20;98.40
12276;DHT22;6200;48.144;11.424;2022-07-15T05:21:37;18.20;98.40
12276;DHT22;6200;48.144;11.424;2022-07-15T05:24:02;18.20;97.70
12276;DHT22;6200;48.144;11.424;2022-07-15T05:26:28;18.20;98.90
12276;DHT22;6200;48.144;11.424;2022-07-15T05:28:53;18.40;98.10
12276;DHT22;6200;48.144;11.424;2022-07-15T05:31:19;18.40;97.60
12276;DHT22;6200;48.144;11.424;2022-07-15T05:33:44;18.40;96.90
12276;DHT22;6200;48.144;11.424;2022-07-15T05:36:14;18.40;97.10
12276;DHT22;6200;48.144;11.424;2022-07-15T05:38:41;18.40;97.00
12276;DHT22;6200;48.144;11.424;2022-07-15T05:41:07;18.50;96.70
12276;DHT22;6200;48.144;11.424;2022-07-15T05:43:32;18.50;96.00
12276;DHT22;6200;48.144;11.424;2022-07-15T05:45:58;18.60;96.20
12276;DHT22;6200;48.144;11.424;2022-07-15T05:48:23;18.70;96.50
12276;DHT22;6200;48.144;11.424;2022-07-15T05:50:49;19.00;96.20
12276;DHT22;6200;48.144;11.424;2022-07-15T05:53:15;19.50;94.60
12276;DHT22;6200;48.144;11.424;2022-07-15T05:55:41;19.90;93.60
12276;DHT22;6200;48.144;11.424;2022-07-15T05:58:07;20.30;93.30
12276;DHT22;6200;48.144;11.424;2022-07-15T06:00:34;20.70;91.90
12276;DHT22;6200;48.144;11.424;2022-07-15T06:02:59;21.00;91.00
12276;DHT22;6200;48.144;11.424;2022-07-15T06:05:25;21.50;88.60
12276;DHT22;6200;48.144;11.424;2022-07-15T06:07:50;21.80;86.10
12276;DHT22;6200;48.144;11.424;2022-07-15T06:10:16;21.90;84.90
12276;DHT22;6200;48.144;11.424;2022-07-15T06:12:41;22.00;84.90
12276;DHT22;6200;48.144;11.424;2022-07-15T06:15:07;22.00;84.20
12276;DHT22;6200;48.144;11.424;2022-07-15T06:17:34;22.20;83.20
12276;DHT22;6200;48.144;11.424;2022-07-15T06:20:00;22.60;79.60
12276;DHT22;6200;48.144;11.424;2022-07-15T06:22:26;22.90;78.40
12276;DHT22;6200;48.144;11.424;2022-07-15T06:24:51;23.10;78.40
12276;DHT22;6200;48.144;11.424;2022-07-15T06:27:17;23.00;76.70
12276;DHT22;6200;48.144;11.424;2022-07-15T06:29:42;23.10;77.20
12276;DHT22;6200;48.144;11.424;2022-07-15T06:32:08;23.20;78.70
12276;DHT22;6200;48.144;11.424;2022-07-15T06:34:34;23.40;74.70
12276;DHT22;6200;48.144;11.424;2022-07-15T06:36:59;23.50;73.60
12276;DHT22;6200;48.144;11.424;2022-07-15T06:39:25;23.80;71.90
12276;DHT22;6200;48.144;11.424;2022-07-15T06:41:50;23.90;72.00
12276;DHT22;6200;48.144;11.424;2022-07-15T06:44:16;24.10;70.80
12276;DHT22;6200;48.144;11.424;2022-07-15T06:46:42;24.40;69.70
12276;DHT22;6200;48.144;11.424;2022-07-15T06:49:08;24.80;70.40
12276;DHT22;6200;48.144;11.424;2022-07-15T06:51:33;24.40;68.30
12276;DHT22;6200;48.144;11.424;2022-07-15T06:53:59;24.00;69.00
12276;DHT22;6200;48.144;11.424;2022-07-15T06:56:24;23.70;67.40
12276;DHT22;6200;48.144;11.424;2022-07-15T06:58:50;23.30;70.00
12276;DHT22;6200;48.144;11.424;2022-07-15T07:01:16;23.00;73.40
12276;DHT22;6200;48.144;11.424;2022-07-15T07:03:41;23.10;71.80
12276;DHT22;6200;48.144;11.424;2022-07-15T07:06:08;23.20;72.10
12276;DHT22;6200;48.144;11.424;2022-07-15T07:08:33;23.30;71.20
12276;DHT22;6200;48.144;11.424;2022-07-15T07:10:59;23.60;71.40
12276;DHT22;6200;48.144;11.424;2022-07-15T07:13:24;24.10;68.90
12276;DHT22;6200;48.144;11.424;2022-07-15T07:15:50;24.20;69.30
12276;DHT22;6200;48.144;11.424;2022-07-15T07:18:15;24.40;67.30
12276;DHT22;6200;48.144;11.424;2022-07-15T07:20:41;24.60;68.70
12276;DHT22;6200;48.144;11.424;2022-07-15T07:23:09;25.20;62.60
12276;DHT22;6200;48.144;11.424;2022-07-15T07:25:35;25.30;64.00
12276;DHT22;6200;48.144;11.424;2022-07-15T07:28:01;25.30;63.20
12276;DHT22;6200;48.144;11.424;2022-07-15T07:30:29;25.30;62.00
12276;DHT22;6200;48.144;11.424;2022-07-15T07:32:55;26.00;63.60
12276;DHT22;6200;48.144;11.424;2022-07-15T07:35:20;26.00;59.80
12276;DHT22;6200;48.144;11.424;2022-07-15T07:37:46;25.80;59.10
12276;DHT22;6200;48.144;11.424;2022-07-15T07:40:11;26.40;58.40
12276;DHT22;6200;48.144;11.424;2022-07-15T07:42:37;26.40;59.50
12276;DHT22;6200;48.144;11.424;2022-07-15T07:45:04;26.50;60.10
12276;DHT22;6200;48.144;11.424;2022-07-15T07:47:34;26.30;62.10
12276;DHT22;6200;48.144;11.424;2022-07-15T07:50:03;26.60;59.40
12276;DHT22;6200;48.144;11.424;2022-07-15T07:52:29;26.80;59.40
12276;DHT22;6200;48.144;11.424;2022-07-15T07:54:55;26.80;59.30
12276;DHT22;6200;48.144;11.424;2022-07-15T07:57:20;26.80;58.40
12276;DHT22;6200;48.144;11.424;2022-07-15T07:59:46;26.90;57.90
12276;DHT22;6200;48.144;11.424;2022-07-15T08:02:11;27.10;57.10
12276;DHT22;6200;48.144;11.424;2022-07-15T08:04:37;27.10;57.30
12276;DHT22;6200;48.144;11.424;2022-07-15T08:07:03;26.90;57.50
12276;DHT22;6200;48.144;11.424;2022-07-15T08:09:31;27.00;57.10
12276;DHT22;6200;48.144;11.424;2022-07-15T08:11:57;26.80;56.70
12276;DHT22;6200;48.144;11.424;2022-07-15T08:14:22;27.10;56.10
12276;DHT22;6200;48.144;11.424;2022-07-15T08:16:50;27.60;57.20
12276;DHT22;6200;48.144;11.424;2022-07-15T08:19:15;27.60;55.20
12276;DHT22;6200;48.144;11.424;2022-07-15T08:21:42;27.50;54.80
12276;DHT22;6200;48.144;11.424;2022-07-15T08:24:08;28.40;55.40
12276;DHT22;6200;48.144;11.424;2022-07-15T08:26:33;27.20;56.30
12276;DHT22;6200;48.144;11.424;2022-07-15T08:28:59;27.50;55.70
12276;DHT22;6200;48.144;11.424;2022-07-15T08:31:24;27.30;56.80
12276;DHT22;6200;48.144;11.424;2022-07-15T08:33:50;27.50;55.30
12276;DHT22;6200;48.144;11.424;2022-07-15T08:36:15;27.50;57.90
12276;DHT22;6200;48.144;11.424;2022-07-15T08:38:41;28.20;54.40
12276;DHT22;6200;48.144;11.424;2022-07-15T08:41:06;28.60;54.00
12276;DHT22;6200;48.144;11.424;2022-07-15T08:43:32;27.90;53.90
12276;DHT22;6200;48.144;11.424;2022-07-15T08:45:58;28.30;54.20
12276;DHT22;6200;48.144;11.424;2022-07-15T08:48:27;28.50;54.20
12276;DHT22;6200;48.144;11.424;2022-07-15T08:50:57;28.20;53.10
12276;DHT22;6200;48.144;11.424;2022-07-15T08:53:26;27.90;56.20
12276;DHT22;6200;48.144;11.424;2022-07-15T08:55:52;28.20;54.80
12276;DHT22;6200;48.144;11.424;2022-07-15T08:58:18;28.50;54.70
12276;DHT22;6200;48.144;11.424;2022-07-15T09:00:44;29.50;54.60
12276;DHT22;6200;48.144;11.424;2022-07-15T09:03:09;29.40;52.10
12276;DHT22;6200;48.144;11.424;2022-07-15T09:05:36;29.40;53.90
12276;DHT22;6200;48.144;11.424;2022-07-15T09:08:03;29.00;52.30
12276;DHT22;6200;48.144;11.424;2022-07-15T09:13:36;29.40;52.10
12276;DHT22;6200;48.144;11.424;2022-07-15T09:16:12;29.70;51.40
12276;DHT22;6200;48.144;11.424;2022-07-15T09:18:45;29.60;52.00
12276;DHT22;6200;48.144;11.424;2022-07-15T09:21:25;29.40;52.10
12276;DHT22;6200;48.144;11.424;2022-07-15T09:23:54;29.70;50.90
12276;DHT22;6200;48.144;11.424;2022-07-15T09:26:33;29.30;52.90
12276;DHT22;6200;48.144;11.424;2022-07-15T09:29:02;30.00;51.30
12276;DHT22;6200;48.144;11.424;2022-07-15T09:31:35;30.00;50.90
12276;DHT22;6200;48.144;11.424;2022-07-15T09:34:22;29.90;51.50
12276;DHT22;6200;48.144;11.424;2022-07-15T09:36:53;29.60;52.30
12276;DHT22;6200;48.144;11.424;2022-07-15T09:39:23;29.50;51.10
12276;DHT22;6200;48.144;11.424;2022-07-15T09:41:50;30.30;49.70
12276;DHT22;6200;48.144;11.424;2022-07-15T09:44:21;30.30;50.30
12276;DHT22;6200;48.144;11.424;2022-07-15T09:47:01;30.00;51.50
12276;DHT22;6200;48.144;11.424;2022-07-15T09:52:09;30.60;50.30
12276;DHT22;6200;48.144;11.424;2022-07-15T09:54:41;30.90;49.10
12276;DHT22;6200;48.144;11.424;2022-07-15T09:57:15;31.80;48.40
12276;DHT22;6200;48.144;11.424;2022-07-15T09:59:42;31.50;48.30
12276;DHT22;6200;48.144;11.424;2022-07-15T10:02:09;31.60;47.70
12276;DHT22;6200;48.144;11.424;2022-07-15T10:04:35;31.40;48.00
12276;DHT22;6200;48.144;11.424;2022-07-15T10:07:02;31.50;47.20
12276;DHT22;6200;48.144;11.424;2022-07-15T10:09:31;31.90;46.10
12276;DHT22;6200;48.144;11.424;2022-07-15T10:12:08;32.40;46.50
12276;DHT22;6200;48.144;11.424;2022-07-15T10:17:28;31.90;47.70
12276;DHT22;6200;48.144;11.424;2022-07-15T10:23:02;32.70;46.60
12276;DHT22;6200;48.144;11.424;2022-07-15T10:25:53;33.10;45.80
12276;DHT22;6200;48.144;11.424;2022-07-15T10:39:13;32.70;46.40
12276;DHT22;6200;48.144;11.424;2022-07-15T10:42:02;32.00;44.80
12276;DHT22;6200;48.144;11.424;2022-07-15T10:44:33;32.50;47.50
12276;DHT22;6200;48.144;11.424;2022-07-15T10:49:41;33.40;46.50
12276;DHT22;6200;48.144;11.424;2022-07-15T10:52:28;33.80;45.00
12276;DHT22;6200;48.144;11.424;2022-07-15T11:00:30;34.80;42.90
12276;DHT22;6200;48.144;11.424;2022-07-15T11:13:43;34.10;43.80
12276;DHT22;6200;48.144;11.424;2022-07-15T11:16:10;34.40;45.10
12276;DHT22;6200;48.144;11.424;2022-07-15T11:18:56;34.60;43.40
12276;DHT22;6200;48.144;11.424;2022-07-15T11:21:24;34.70;42.90
12276;DHT22;6200;48.144;11.424;2022-07-15T11:23:51;34.50;43.40
12276;DHT22;6200;48.144;11.424;2022-07-15T11:26:18;34.30;43.70
12276;DHT22;6200;48.144;11.424;2022-07-15T11:28:55;34.10;45.10
12276;DHT22;6200;48.144;11.424;2022-07-15T11:31:21;34.70;43.30
12276;DHT22;6200;48.144;11.424;2022-07-15T11:33:47;35.90;43.60
12276;DHT22;6200;48.144;11.424;2022-07-15T11:36:18;35.70;42.90
12276;DHT22;6200;48.144;11.424;2022-07-15T11:38:44;37.40;42.30
12276;DHT22;6200;48.144;11.424;2022-07-15T11:41:10;35.50;40.20
12276;DHT22;6200;48.144;11.424;2022-07-15T11:44:03;36.20;41.60
12276;DHT22;6200;48.144;11.424;2022-07-15T11:46:48;35.20;42.40
12276;DHT22;6200;48.144;11.424;2022-07-15T11:49:32;35.00;42.90
12276;DHT22;6200;48.144;11.424;2022-07-15T11:51:58;35.30;40.90
12276;DHT22;6200;48.144;11.424;2022-07-15T11:54:24;35.20;43.20
12276;DHT22;6200;48.144;11.424;2022-07-15T11:57:01;35.10;42.10
12276;DHT22;6200;48.144;11.424;2022-07-15T11:59:28;35.10;42.20
12276;DHT22;6200;48.144;11.424;2022-07-15T12:02:08;35.30;44.30
12276;DHT22;6200;48.144;11.424;2022-07-15T12:04:34;35.20;42.00
12276;DHT22;6200;48.144;11.424;2022-07-15T12:07:00;34.80;40.40
12276;DHT22;6200;48.144;11.424;2022-07-15T12:09:27;34.60;42.00
12276;DHT22;6200;48.144;11.424;2022-07-15T12:12:03;35.10;41.90
12276;DHT22;6200;48.144;11.424;2022-07-15T12:14:28;34.90;41.70
12276;DHT22;6200;48.144;11.424;2022-07-15T12:16:54;35.00;42.80
12276;DHT22;6200;48.144;11.424;2022-07-15T12:19:30;35.30;42.60
12276;DHT22;6200;48.144;11.424;2022-07-15T12:21:58;35.70;41.50
12276;DHT22;6200;48.144;11.424;2022-07-15T12:24:26;35.70;40.20
12276;DHT22;6200;48.144;11.424;2022-07-15T12:29:31;36.50;38.80
12276;DHT22;6200;48.144;11.424;2022-07-15T12:32:00;36.10;39.30
12276;DHT22;6200;48.144;11.424;2022-07-15T12:34:48;35.70;40.60
12276;DHT22;6200;48.144;11.424;2022-07-15T12:37:21;35.80;42.10
12276;DHT22;6200;48.144;11.424;2022-07-15T12:40:07;35.80;40.90
12276;DHT22;6200;48.144;11.424;2022-07-15T12:42:44;36.10;40.00
12276;DHT22;6200;48.144;11.424;2022-07-15T12:45:17;35.50;40.70
12276;DHT22;6200;48.144;11.424;2022-07-15T12:48:00;35.00;39.20
12276;DHT22;6200;48.144;11.424;2022-07-15T12:50:56;34.60;40.30
12276;DHT22;6200;48.144;11.424;2022-07-15T12:53:20;35.10;40.70
12276;DHT22;6200;48.144;11.424;2022-07-15T12:55:48;35.70;41.40
12276;DHT22;6200;48.144;11.424;2022-07-15T12:58:16;35.70;40.20
12276;DHT22;6200;48.144;11.424;2022-07-15T13:00:43;35.60;40.50
12276;DHT22;6200;48.144;11.424;2022-07-15T13:05:36;35.30;40.30
12276;DHT22;6200;48.144;11.424;2022-07-15T13:08:05;35.10;41.70
12276;DHT22;6200;48.144;11.424;2022-07-15T13:10:31;34.60;42.80
12276;DHT22;6200;48.144;11.424;2022-07-15T13:12:57;34.30;42.20
12276;DHT22;6200;48.144;11.424;2022-07-15T13:15:23;34.60;42.20
12276;DHT22;6200;48.144;11.424;2022-07-15T13:17:48;34.90;42.10
12276;DHT22;6200;48.144;11.424;2022-07-15T13:20:14;35.30;42.40
12276;DHT22;6200;48.144;11.424;2022-07-15T13:22:40;35.40;41.90
12276;DHT22;6200;48.144;11.424;2022-07-15T13:25:06;35.60;40.70
12276;DHT22;6200;48.144;11.424;2022-07-15T13:27:31;36.00;39.70
12276;DHT22;6200;48.144;11.424;2022-07-15T13:29:57;35.80;40.90
12276;DHT22;6200;48.144;11.424;2022-07-15T13:32:23;35.60;40.80
12276;DHT22;6200;48.144;11.424;2022-07-15T13:34:49;35.50;39.10
12276;DHT22;6200;48.144;11.424;2022-07-15T13:37:14;35.20;38.80
12276;DHT22;6200;48.144;11.424;2022-07-15T13:39:40;35.30;40.80
12276;DHT22;6200;48.144;11.424;2022-07-15T13:42:06;36.10;39.90
12276;DHT22;6200;48.144;11.424;2022-07-15T13:44:31;35.80;39.40
12276;DHT22;6200;48.144;11.424;2022-07-15T13:46:57;36.50;40.30
12276;DHT22;6200;48.144;11.424;2022-07-15T13:49:23;36.40;39.40
12276;DHT22;6200;48.144;11.424;2022-07-15T13:52:08;36.00;41.20
12276;DHT22;6200;48.144;11.424;2022-07-15T13:54:34;36.50;39.50
12276;DHT22;6200;48.144;11.424;2022-07-15T13:57:00;36.20;39.00
12276;DHT22;6200;48.144;11.424;2022-07-15T13:59:27;35.90;39.70
12276;DHT22;6200;48.144;11.424;2022-07-15T14:01:52;36.10;39.60
12276;DHT22;6200;48.144;11.424;2022-07-15T14:04:19;35.80;38.90
12276;DHT22;6200;48.144;11.424;2022-07-15T14:06:45;34.90;39.90
12276;DHT22;6200;48.144;11.424;2022-07-15T14:09:10;34.60;40.90
12276;DHT22;6200;48.144;11.424;2022-07-15T14:11:36;34.00;41.80
12276;DHT22;6200;48.144;11.424;2022-07-15T14:14:01;33.50;41.90
12276;DHT22;6200;48.144;11.424;2022-07-15T14:16:27;33.10;43.10
12276;DHT22;6200;48.144;11.424;2022-07-15T14:18:53;32.90;43.30
12276;DHT22;6200;48.144;11.424;2022-07-15T14:21:20;32.70;43.70
12276;DHT22;6200;48.144;11.424;2022-07-15T14:23:47;32.50;43.70
12276;DHT22;6200;48.144;11.424;2022-07-15T14:26:14;32.50;43.20
12276;DHT22;6200;48.144;11.424;2022-07-15T14:28:41;32.30;44.80
12276;DHT22;6200;48.144;11.424;2022-07-15T14:31:09;31.80;43.80
12276;DHT22;6200;48.144;11.424;2022-07-15T14:33:41;31.60;46.10
12276;DHT22;6200;48.144;11.424;2022-07-15T14:36:11;31.50;44.60
12276;DHT22;6200;48.144;11.424;2022-07-15T14:38:37;31.30;46.60
12276;DHT22;6200;48.144;11.424;2022-07-15T14:41:04;30.90;45.90
12276;DHT22;6200;48.144;11.424;2022-07-15T14:43:30;30.80;45.90
12276;DHT22;6200;48.144;11.424;2022-07-15T14:45:56;30.70;44.20
12276;DHT22;6200;48.144;11.424;2022-07-15T14:48:22;30.40;45.90
12276;DHT22;6200;48.144;11.424;2022-07-15T14:50:48;30.30;46.90
12276;DHT22;6200;48.144;11.424;2022-07-15T14:53:13;30.30;46.60
12276;DHT22;6200;48.144;11.424;2022-07-15T14:55:39;30.20;47.40
12276;DHT22;6200;48.144;11.424;2022-07-15T14:58:05;30.00;47.10
12276;DHT22;6200;48.144;11.424;2022-07-15T15:00:30;29.80;46.10
12276;DHT22;6200;48.144;11.424;2022-07-15T15:02:56;29.90;47.60
12276;DHT22;6200;48.144;11.424;2022-07-15T15:05:22;29.80;47.30
12276;DHT22;6200;48.144;11.424;2022-07-15T15:07:48;29.70;47.10
12276;DHT22;6200;48.144;11.424;2022-07-15T15:10:14;29.70;48.50
12276;DHT22;6200;48.144;11.424;2022-07-15T15:12:40;29.60;47.30
12276;DHT22;6200;48.144;11.424;2022-07-15T15:15:06;29.50;47.60
12276;DHT22;6200;48.144;11.424;2022-07-15T15:17:32;29.20;47.30
12276;DHT22;6200;48.144;11.424;2022-07-15T15:19:58;29.20;46.40
12276;DHT22;6200;48.144;11.424;2022-07-15T15:22:23;29.10;47.10
12276;DHT22;6200;48.144;11.424;2022-07-15T15:24:49;29.10;47.10
12276;DHT22;6200;48.144;11.424;2022-07-15T15:27:15;28.80;48.70
12276;DHT22;6200;48.144;11.424;2022-07-15T15:29:40;28.80;49.70
12276;DHT22;6200;48.144;11.424;2022-07-15T15:32:06;28.70;48.60
12276;DHT22;6200;48.144;11.424;2022-07-15T15:34:39;28.50;48.10
12276;DHT22;6200;48.144;11.424;2022-07-15T15:37:05;28.80;48.70
12276;DHT22;6200;48.144;11.424;2022-07-15T15:39:31;28.80;48.70
12276;DHT22;6200;48.144;11.424;2022-07-15T15:41:56;28.70;49.00
12276;DHT22;6200;48.144;11.424;2022-07-15T15:44:22;28.50;48.40
12276;DHT22;6200;48.144;11.424;2022-07-15T15:46:47;28.50;48.40
12276;DHT22;6200;48.144;11.424;2022-07-15T15:49:13;28.40;48.40
12276;DHT22;6200;48.144;11.424;2022-07-15T15:51:39;28.30;49.90
12276;DHT22;6200;48.144;11.424;2022-07-15T15:54:04;28.40;49.10
12276;DHT22;6200;48.144;11.424;2022-07-15T15:56:30;28.20;48.10
12276;DHT22;6200;48.144;11.424;2022-07-15T15:58:56;28.20;48.50
12276;DHT22;6200;48.144;11.424;2022-07-15T16:01:21;28.20;48.70
12276;DHT22;6200;48.144;11.424;2022-07-15T16:03:48;28.00;49.60
12276;DHT22;6200;48.144;11.424;2022-07-15T16:06:14;28.10;48.30
12276;DHT22;6200;48.144;11.424;2022-07-15T16:08:40;28.10;47.60
12276;DHT22;6200;48.144;11.424;2022-07-15T16:11:06;28.10;48.30
12276;DHT22;6200;48.144;11.424;2022-07-15T16:13:32;28.10;49.00
12276;DHT22;6200;48.144;11.424;2022-07-15T16:15:57;27.90;49.80
12276;DHT22;6200;48.144;11.424;2022-07-15T16:18:23;27.90;49.40
12276;DHT22;6200;48.144;11.424;2022-07-15T16:20:49;27.90;49.70